DAAJ/DJG METAR and TAF weather

Enter ICAO airport designator
Station Type Date Time Source
DAAJ METAR 2022/01/29 01:00 UTC NOAA

DAAJ 290100Z 00000KT CAVOK 04/M16 Q1025


Station Type Date Time Source
DAAJ Decoded METAR 2022/01/29 01:00 UTC NOAA

Djanet, Algeria (DAAJ) 24-33N 009-28E 1054M
Jan 28, 2022 - 08:00 PM EST / 2022.01.29 0100 UTC
Wind: Calm:0
Visibility: greater than 7 mile(s):0
Temperature: 39 F (4 C)
Dew Point: 3 F (-16 C)
Relative Humidity: 21%
Pressure (altimeter): 30.27 in. Hg (1025 hPa)
ob: DAAJ 290100Z 00000KT CAVOK 04/M16 Q1025
cycle: 1

Station Type Date Time Source
DAAJ TAF 2022/01/28 18:31 UTC NOAA

TAF DAAJ 281700Z 2818/2918 VRB02KT CAVOK
TEMPO 2818/2820 18010KT
BECMG 2909/2912 20010KT

Example: see airport list